sensor_id;sensor_type;location;lat;lon;timestamp;pressure;altitude;pressure_sealevel;temperature;humidity
63512;BME280;49666;52.030;8.884;2024-01-16T00:01:51;99166.75;;;0.86;84.03
63512;BME280;49666;52.030;8.884;2024-01-16T00:04:16;99159.59;;;0.72;83.84
63512;BME280;49666;52.030;8.884;2024-01-16T00:06:42;99183.78;;;0.58;83.73
63512;BME280;49666;52.030;8.884;2024-01-16T00:09:08;99177.34;;;0.48;84.12
63512;BME280;49666;52.030;8.884;2024-01-16T00:11:33;99181.44;;;0.46;84.51
63512;BME280;49666;52.030;8.884;2024-01-16T00:13:59;99196.31;;;0.43;84.97
63512;BME280;49666;52.030;8.884;2024-01-16T00:16:24;99194.72;;;0.42;85.15
63512;BME280;49666;52.030;8.884;2024-01-16T00:18:50;99210.13;;;0.42;85.40
63512;BME280;49666;52.030;8.884;2024-01-16T00:21:15;99207.94;;;0.44;85.69
63512;BME280;49666;52.030;8.884;2024-01-16T00:23:40;99208.72;;;0.44;85.58
63512;BME280;49666;52.030;8.884;2024-01-16T00:26:06;99201.66;;;0.48;86.14
63512;BME280;49666;52.030;8.884;2024-01-16T00:28:32;99208.63;;;0.55;86.38
63512;BME280;49666;52.030;8.884;2024-01-16T00:30:57;99205.13;;;0.59;86.68
63512;BME280;49666;52.030;8.884;2024-01-16T00:33:23;99210.16;;;0.66;86.79
63512;BME280;49666;52.030;8.884;2024-01-16T00:35:48;99213.34;;;0.73;86.99
63512;BME280;49666;52.030;8.884;2024-01-16T00:38:13;99220.06;;;0.81;87.04
63512;BME280;49666;52.030;8.884;2024-01-16T00:40:39;99217.84;;;0.88;87.38
63512;BME280;49666;52.030;8.884;2024-01-16T00:43:04;99217.47;;;0.95;87.45
63512;BME280;49666;52.030;8.884;2024-01-16T00:45:29;99216.66;;;0.99;87.25
63512;BME280;49666;52.030;8.884;2024-01-16T00:47:55;99221.19;;;1.04;87.17
63512;BME280;49666;52.030;8.884;2024-01-16T00:50:20;99228.75;;;1.07;87.14
63512;BME280;49666;52.030;8.884;2024-01-16T00:52:46;99229.25;;;1.09;86.46
63512;BME280;49666;52.030;8.884;2024-01-16T00:55:11;99237.09;;;1.11;86.89
63512;BME280;49666;52.030;8.884;2024-01-16T00:57:36;99239.22;;;1.14;87.01
63512;BME280;49666;52.030;8.884;2024-01-16T01:00:02;99243.22;;;1.16;87.05
63512;BME280;49666;52.030;8.884;2024-01-16T01:02:29;99248.38;;;1.18;87.05
63512;BME280;49666;52.030;8.884;2024-01-16T01:04:54;99245.41;;;1.19;86.90
63512;BME280;49666;52.030;8.884;2024-01-16T01:07:19;99240.78;;;1.20;86.79
63512;BME280;49666;52.030;8.884;2024-01-16T01:09:45;99245.09;;;1.21;86.84
63512;BME280;49666;52.030;8.884;2024-01-16T01:12:10;99246.19;;;1.20;86.67
63512;BME280;49666;52.030;8.884;2024-01-16T01:14:35;99245.69;;;1.18;86.41
63512;BME280;49666;52.030;8.884;2024-01-16T01:17:01;99246.22;;;1.15;86.27
63512;BME280;49666;52.030;8.884;2024-01-16T01:19:26;99243.31;;;1.11;86.00
63512;BME280;49666;52.030;8.884;2024-01-16T01:21:51;99246.03;;;1.06;85.75
63512;BME280;49666;52.030;8.884;2024-01-16T01:24:17;99257.22;;;0.99;85.38
63512;BME280;49666;52.030;8.884;2024-01-16T01:26:45;99258.03;;;0.95;85.37
63512;BME280;49666;52.030;8.884;2024-01-16T01:29:10;99266.16;;;0.95;85.92
63512;BME280;49666;52.030;8.884;2024-01-16T01:31:36;99266.16;;;0.95;85.92
63512;BME280;49666;52.030;8.884;2024-01-16T01:34:01;99276.75;;;0.91;85.68
63512;BME280;49666;52.030;8.884;2024-01-16T01:36:27;99294.31;;;0.89;85.86
63512;BME280;49666;52.030;8.884;2024-01-16T01:38:52;99286.22;;;0.89;85.83
63512;BME280;49666;52.030;8.884;2024-01-16T01:41:17;99294.31;;;0.89;86.13
63512;BME280;49666;52.030;8.884;2024-01-16T01:43:43;99295.94;;;0.90;86.42
63512;BME280;49666;52.030;8.884;2024-01-16T01:46:16;99297.78;;;0.94;86.59
63512;BME280;49666;52.030;8.884;2024-01-16T01:48:43;99294.53;;;0.97;86.66
63512;BME280;49666;52.030;8.884;2024-01-16T01:51:09;99294.78;;;1.01;86.58
63512;BME280;49666;52.030;8.884;2024-01-16T01:53:36;99302.81;;;1.06;86.70
63512;BME280;49666;52.030;8.884;2024-01-16T01:56:04;99304.16;;;1.09;86.79
63512;BME280;49666;52.030;8.884;2024-01-16T01:58:33;99301.72;;;1.12;86.75
63512;BME280;49666;52.030;8.884;2024-01-16T02:01:00;99306.00;;;1.13;86.72
63512;BME280;49666;52.030;8.884;2024-01-16T02:03:27;99313.31;;;1.13;86.60
63512;BME280;49666;52.030;8.884;2024-01-16T02:05:55;99307.91;;;1.13;86.49
63512;BME280;49666;52.030;8.884;2024-01-16T02:08:21;99316.53;;;1.15;86.45
63512;BME280;49666;52.030;8.884;2024-01-16T02:10:49;99319.78;;;1.17;86.50
63512;BME280;49666;52.030;8.884;2024-01-16T02:13:15;99314.09;;;1.18;85.97
63512;BME280;49666;52.030;8.884;2024-01-16T02:15:40;99318.41;;;1.19;86.33
63512;BME280;49666;52.030;8.884;2024-01-16T02:18:07;99317.31;;;1.20;86.43
63512;BME280;49666;52.030;8.884;2024-01-16T02:20:32;99323.53;;;1.21;86.63
63512;BME280;49666;52.030;8.884;2024-01-16T02:23:00;99317.84;;;1.23;86.57
63512;BME280;49666;52.030;8.884;2024-01-16T02:25:29;99318.41;;;1.19;86.41
63512;BME280;49666;52.030;8.884;2024-01-16T02:27:54;99329.75;;;1.21;86.48
63512;BME280;49666;52.030;8.884;2024-01-16T02:30:19;99326.75;;;1.23;86.70
63512;BME280;49666;52.030;8.884;2024-01-16T02:32:45;99327.59;;;1.24;86.50
63512;BME280;49666;52.030;8.884;2024-01-16T02:35:10;99335.41;;;1.25;86.41
63512;BME280;49666;52.030;8.884;2024-01-16T02:37:36;99342.13;;;1.28;86.42
63512;BME280;49666;52.030;8.884;2024-01-16T02:40:01;99320.50;;;1.28;86.26
63512;BME280;49666;52.030;8.884;2024-01-16T02:42:32;99328.09;;;1.26;86.19
63512;BME280;49666;52.030;8.884;2024-01-16T02:44:57;99335.94;;;1.22;85.65
63512;BME280;49666;52.030;8.884;2024-01-16T02:47:23;99334.66;;;1.19;85.71
63512;BME280;49666;52.030;8.884;2024-01-16T02:49:48;99334.09;;;1.17;85.70
63512;BME280;49666;52.030;8.884;2024-01-16T02:52:13;99341.72;;;1.15;85.93
63512;BME280;49666;52.030;8.884;2024-01-16T02:54:38;99341.41;;;1.17;85.96
63512;BME280;49666;52.030;8.884;2024-01-16T02:57:04;99347.34;;;1.19;86.19
63512;BME280;49666;52.030;8.884;2024-01-16T02:59:30;99349.75;;;1.20;86.42
63512;BME280;49666;52.030;8.884;2024-01-16T03:01:55;99355.72;;;1.23;86.48
63512;BME280;49666;52.030;8.884;2024-01-16T03:04:21;99353.00;;;1.23;86.26
63512;BME280;49666;52.030;8.884;2024-01-16T03:06:46;99352.47;;;1.20;86.14
63512;BME280;49666;52.030;8.884;2024-01-16T03:09:11;99351.69;;;1.15;85.55
63512;BME280;49666;52.030;8.884;2024-01-16T03:11:37;99353.59;;;1.14;85.87
63512;BME280;49666;52.030;8.884;2024-01-16T03:14:02;99360.09;;;1.13;85.87
63512;BME280;49666;52.030;8.884;2024-01-16T03:16:28;99359.00;;;1.14;85.98
63512;BME280;49666;52.030;8.884;2024-01-16T03:18:54;99358.72;;;1.16;85.83
63512;BME280;49666;52.030;8.884;2024-01-16T03:21:19;99359.28;;;1.18;86.18
63512;BME280;49666;52.030;8.884;2024-01-16T03:23:44;99360.34;;;1.17;86.01
63512;BME280;49666;52.030;8.884;2024-01-16T03:26:13;99363.84;;;1.17;86.00
63512;BME280;49666;52.030;8.884;2024-01-16T03:28:39;99361.16;;;1.17;86.11
63512;BME280;49666;52.030;8.884;2024-01-16T03:31:05;99369.81;;;1.19;86.26
63512;BME280;49666;52.030;8.884;2024-01-16T03:33:30;99371.13;;;1.22;86.25
63512;BME280;49666;52.030;8.884;2024-01-16T03:35:55;99384.38;;;1.24;86.46
63512;BME280;49666;52.030;8.884;2024-01-16T03:38:21;99381.91;;;1.27;86.66
63512;BME280;49666;52.030;8.884;2024-01-16T03:40:46;99383.53;;;1.28;86.47
63512;BME280;49666;52.030;8.884;2024-01-16T03:43:11;99384.31;;;1.29;86.33
63512;BME280;49666;52.030;8.884;2024-01-16T03:45:36;99380.28;;;1.26;85.95
63512;BME280;49666;52.030;8.884;2024-01-16T03:48:02;99382.47;;;1.24;85.82
63512;BME280;49666;52.030;8.884;2024-01-16T03:50:28;99384.91;;;1.20;85.93
63512;BME280;49666;52.030;8.884;2024-01-16T03:52:53;99379.00;;;1.18;85.71
63512;BME280;49666;52.030;8.884;2024-01-16T03:55:19;99384.16;;;1.15;85.68
63512;BME280;49666;52.030;8.884;2024-01-16T03:57:44;99390.38;;;1.15;85.69
63512;BME280;49666;52.030;8.884;2024-01-16T04:00:11;99390.38;;;1.15;85.73
63512;BME280;49666;52.030;8.884;2024-01-16T04:02:37;99388.75;;;1.14;85.84
63512;BME280;49666;52.030;8.884;2024-01-16T04:05:03;99378.75;;;1.15;85.83
63512;BME280;49666;52.030;8.884;2024-01-16T04:07:29;99377.94;;;1.14;85.86
63512;BME280;49666;52.030;8.884;2024-01-16T04:09:54;99383.91;;;1.11;85.55
63512;BME280;49666;52.030;8.884;2024-01-16T04:12:19;99380.19;;;1.02;85.23
63512;BME280;49666;52.030;8.884;2024-01-16T04:14:45;99387.28;;;0.93;84.81
63512;BME280;49666;52.030;8.884;2024-01-16T04:17:10;99380.81;;;0.89;85.03
63512;BME280;49666;52.030;8.884;2024-01-16T04:19:35;99383.00;;;0.86;85.22
63512;BME280;49666;52.030;8.884;2024-01-16T04:22:01;99383.00;;;0.86;85.37
63512;BME280;49666;52.030;8.884;2024-01-16T04:24:27;99388.41;;;0.86;85.57
63512;BME280;49666;52.030;8.884;2024-01-16T04:26:53;99382.19;;;0.86;85.88
63512;BME280;49666;52.030;8.884;2024-01-16T04:29:18;99386.28;;;0.83;85.68
63512;BME280;49666;52.030;8.884;2024-01-16T04:31:43;99394.38;;;0.83;85.80
63512;BME280;49666;52.030;8.884;2024-01-16T04:34:09;99385.72;;;0.86;86.03
63512;BME280;49666;52.030;8.884;2024-01-16T04:36:35;99385.44;;;0.88;85.98
63512;BME280;49666;52.030;8.884;2024-01-16T04:39:00;99385.44;;;0.88;86.06
63512;BME280;49666;52.030;8.884;2024-01-16T04:41:25;99387.84;;;0.90;86.36
63512;BME280;49666;52.030;8.884;2024-01-16T04:43:50;99384.88;;;0.91;86.16
63512;BME280;49666;52.030;8.884;2024-01-16T04:46:16;99380.53;;;0.95;86.54
63512;BME280;49666;52.030;8.884;2024-01-16T04:48:42;99375.06;;;1.00;86.68
63512;BME280;49666;52.030;8.884;2024-01-16T04:51:07;99385.06;;;1.05;86.75
63512;BME280;49666;52.030;8.884;2024-01-16T04:53:33;99380.69;;;1.09;86.62
63512;BME280;49666;52.030;8.884;2024-01-16T04:55:58;99382.00;;;1.12;86.68
63512;BME280;49666;52.030;8.884;2024-01-16T04:58:24;99373.34;;;1.15;86.59
63512;BME280;49666;52.030;8.884;2024-01-16T05:00:49;99378.47;;;1.16;86.56
63512;BME280;49666;52.030;8.884;2024-01-16T05:03:14;99381.69;;;1.18;86.59
63512;BME280;49666;52.030;8.884;2024-01-16T05:05:39;99378.72;;;1.20;86.55
63512;BME280;49666;52.030;8.884;2024-01-16T05:08:05;99377.63;;;1.21;86.50
63512;BME280;49666;52.030;8.884;2024-01-16T05:10:30;99377.63;;;1.21;86.57
63512;BME280;49666;52.030;8.884;2024-01-16T05:12:56;99374.66;;;1.23;86.44
63512;BME280;49666;52.030;8.884;2024-01-16T05:15:21;99370.03;;;1.23;86.47
63512;BME280;49666;52.030;8.884;2024-01-16T05:17:46;99369.22;;;1.23;86.31
63512;BME280;49666;52.030;8.884;2024-01-16T05:20:12;99366.28;;;1.19;86.13
63512;BME280;49666;52.030;8.884;2024-01-16T05:22:37;99373.59;;;1.18;85.87
63512;BME280;49666;52.030;8.884;2024-01-16T05:25:04;99365.47;;;1.18;86.02
63512;BME280;49666;52.030;8.884;2024-01-16T05:27:32;99372.50;;;1.19;86.12
63512;BME280;49666;52.030;8.884;2024-01-16T05:29:57;99369.53;;;1.21;86.17
63512;BME280;49666;52.030;8.884;2024-01-16T05:32:23;99372.72;;;1.23;86.12
63512;BME280;49666;52.030;8.884;2024-01-16T05:34:48;99375.16;;;1.25;86.29
63512;BME280;49666;52.030;8.884;2024-01-16T05:37:13;99366.25;;;1.24;86.01
63512;BME280;49666;52.030;8.884;2024-01-16T05:39:38;99375.97;;;1.25;86.20
63512;BME280;49666;52.030;8.884;2024-01-16T05:42:04;99369.47;;;1.26;86.25
63512;BME280;49666;52.030;8.884;2024-01-16T05:44:33;99376.22;;;1.29;86.41
63512;BME280;49666;52.030;8.884;2024-01-16T05:46:58;99379.44;;;1.31;86.43
63512;BME280;49666;52.030;8.884;2024-01-16T05:49:23;99376.75;;;1.31;86.32
63512;BME280;49666;52.030;8.884;2024-01-16T05:51:49;99372.94;;;1.32;86.48
63512;BME280;49666;52.030;8.884;2024-01-16T05:54:14;99375.34;;;1.33;86.45
63512;BME280;49666;52.030;8.884;2024-01-16T05:56:39;99376.19;;;1.34;86.47
63512;BME280;49666;52.030;8.884;2024-01-16T05:59:04;99369.66;;;1.35;86.46
63512;BME280;49666;52.030;8.884;2024-01-16T06:01:30;99373.97;;;1.36;86.55
63512;BME280;49666;52.030;8.884;2024-01-16T06:03:55;99369.13;;;1.38;86.64
63512;BME280;49666;52.030;8.884;2024-01-16T06:06:20;99366.91;;;1.40;86.57
63512;BME280;49666;52.030;8.884;2024-01-16T06:08:46;99369.63;;;1.40;86.56
63512;BME280;49666;52.030;8.884;2024-01-16T06:11:11;99371.25;;;1.41;86.50
63512;BME280;49666;52.030;8.884;2024-01-16T06:13:38;99376.66;;;1.41;86.43
63512;BME280;49666;52.030;8.884;2024-01-16T06:16:06;99373.66;;;1.43;86.42
63512;BME280;49666;52.030;8.884;2024-01-16T06:18:31;99379.88;;;1.43;86.55
63512;BME280;49666;52.030;8.884;2024-01-16T06:20:57;99376.88;;;1.45;86.45
63512;BME280;49666;52.030;8.884;2024-01-16T06:23:22;99383.38;;;1.44;86.27
63512;BME280;49666;52.030;8.884;2024-01-16T06:25:48;99388.00;;;1.43;86.35
63512;BME280;49666;52.030;8.884;2024-01-16T06:28:13;99386.09;;;1.44;86.36
63512;BME280;49666;52.030;8.884;2024-01-16T06:30:38;99396.09;;;1.43;86.44
63512;BME280;49666;52.030;8.884;2024-01-16T06:33:04;99389.06;;;1.42;86.39
63512;BME280;49666;52.030;8.884;2024-01-16T06:35:29;99384.19;;;1.44;86.49
63512;BME280;49666;52.030;8.884;2024-01-16T06:37:55;99385.81;;;1.45;86.46
63512;BME280;49666;52.030;8.884;2024-01-16T06:40:20;99374.19;;;1.45;86.37
63512;BME280;49666;52.030;8.884;2024-01-16T06:42:46;99376.88;;;1.45;86.35
63512;BME280;49666;52.030;8.884;2024-01-16T06:45:11;99379.59;;;1.45;86.32
63512;BME280;49666;52.030;8.884;2024-01-16T06:47:38;99376.88;;;1.45;86.37
63512;BME280;49666;52.030;8.884;2024-01-16T06:50:04;99378.25;;;1.42;85.75
63512;BME280;49666;52.030;8.884;2024-01-16T06:52:29;99385.84;;;1.40;85.86
63512;BME280;49666;52.030;8.884;2024-01-16T06:54:55;99378.59;;;1.35;85.69
63512;BME280;49666;52.030;8.884;2024-01-16T06:57:21;99380.00;;;1.28;85.52
63512;BME280;49666;52.030;8.884;2024-01-16T06:59:46;99380.63;;;1.19;84.96
63512;BME280;49666;52.030;8.884;2024-01-16T07:02:11;99389.03;;;1.13;84.95
63512;BME280;49666;52.030;8.884;2024-01-16T07:04:37;99397.44;;;1.11;85.11
63512;BME280;49666;52.030;8.884;2024-01-16T07:07:02;99394.47;;;1.08;85.20
63512;BME280;49666;52.030;8.884;2024-01-16T07:09:28;99394.53;;;1.02;84.95
63512;BME280;49666;52.030;8.884;2024-01-16T07:11:53;99400.78;;;0.98;85.06
63512;BME280;49666;52.030;8.884;2024-01-16T07:14:19;99396.97;;;0.99;85.12
63512;BME280;49666;52.030;8.884;2024-01-16T07:16:45;99400.72;;;1.03;85.75
63512;BME280;49666;52.030;8.884;2024-01-16T07:19:10;99401.78;;;1.07;85.99
63512;BME280;49666;52.030;8.884;2024-01-16T07:21:37;99402.31;;;1.09;86.19
63512;BME280;49666;52.030;8.884;2024-01-16T07:24:02;99407.97;;;1.13;86.27
63512;BME280;49666;52.030;8.884;2024-01-16T07:26:28;99401.19;;;1.15;86.36
63512;BME280;49666;52.030;8.884;2024-01-16T07:28:53;99407.66;;;1.19;86.27
63512;BME280;49666;52.030;8.884;2024-01-16T07:31:19;99409.25;;;1.20;86.21
63512;BME280;49666;52.030;8.884;2024-01-16T07:33:44;99415.22;;;1.23;86.41
63512;BME280;49666;52.030;8.884;2024-01-16T07:36:11;99411.44;;;1.24;86.50
63512;BME280;49666;52.030;8.884;2024-01-16T07:38:37;99411.66;;;1.27;86.76
63512;BME280;49666;52.030;8.884;2024-01-16T07:41:02;99420.28;;;1.29;86.23
63512;BME280;49666;52.030;8.884;2024-01-16T07:43:28;99425.16;;;1.32;86.64
63512;BME280;49666;52.030;8.884;2024-01-16T07:45:55;99421.88;;;1.35;86.52
63512;BME280;49666;52.030;8.884;2024-01-16T07:48:20;99404.28;;;1.38;86.66
63512;BME280;49666;52.030;8.884;2024-01-16T07:50:47;99416.41;;;1.41;87.05
63512;BME280;49666;52.030;8.884;2024-01-16T07:53:13;99424.78;;;1.44;86.77
63512;BME280;49666;52.030;8.884;2024-01-16T07:55:40;99424.50;;;1.46;86.72
63512;BME280;49666;52.030;8.884;2024-01-16T07:58:05;99413.91;;;1.49;86.72
63512;BME280;49666;52.030;8.884;2024-01-16T08:00:31;99419.84;;;1.51;86.60
63512;BME280;49666;52.030;8.884;2024-01-16T08:02:56;99423.06;;;1.53;86.71
63512;BME280;49666;52.030;8.884;2024-01-16T08:05:22;99422.25;;;1.58;86.88
63512;BME280;49666;52.030;8.884;2024-01-16T08:07:50;99421.09;;;1.64;86.82
63512;BME280;49666;52.030;8.884;2024-01-16T08:10:16;99431.88;;;1.69;86.96
63512;BME280;49666;52.030;8.884;2024-01-16T08:12:41;99434.53;;;1.75;87.08
63512;BME280;49666;52.030;8.884;2024-01-16T08:15:06;99426.09;;;1.81;87.11
63512;BME280;49666;52.030;8.884;2024-01-16T08:17:33;99429.28;;;1.88;87.13
63512;BME280;49666;52.030;8.884;2024-01-16T08:19:59;99440.31;;;1.92;86.73
63512;BME280;49666;52.030;8.884;2024-01-16T08:22:24;99443.56;;;1.94;86.92
63512;BME280;49666;52.030;8.884;2024-01-16T08:24:49;99443.00;;;1.97;86.87
63512;BME280;49666;52.030;8.884;2024-01-16T08:27:15;99439.44;;;2.02;86.88
63512;BME280;49666;52.030;8.884;2024-01-16T08:29:41;99442.09;;;2.07;86.96
63512;BME280;49666;52.030;8.884;2024-01-16T08:32:06;99431.19;;;2.12;87.23
63512;BME280;49666;52.030;8.884;2024-01-16T08:34:31;99433.31;;;2.15;86.88
63512;BME280;49666;52.030;8.884;2024-01-16T08:36:57;99431.66;;;2.19;86.86
63512;BME280;49666;52.030;8.884;2024-01-16T08:39:23;99429.19;;;2.23;86.87
63512;BME280;49666;52.030;8.884;2024-01-16T08:41:49;99428.63;;;2.26;86.62
63512;BME280;49666;52.030;8.884;2024-01-16T08:44:14;99425.63;;;2.28;86.09
63512;BME280;49666;52.030;8.884;2024-01-16T08:46:40;99421.53;;;2.30;86.39
63512;BME280;49666;52.030;8.884;2024-01-16T08:49:05;99431.25;;;2.31;86.30
63512;BME280;49666;52.030;8.884;2024-01-16T08:51:30;99439.09;;;2.33;86.68
63512;BME280;49666;52.030;8.884;2024-01-16T08:53:56;99447.47;;;2.36;86.71
63512;BME280;49666;52.030;8.884;2024-01-16T08:56:21;99451.22;;;2.40;86.75
63512;BME280;49666;52.030;8.884;2024-01-16T08:58:47;99451.13;;;2.46;86.79
63512;BME280;49666;52.030;8.884;2024-01-16T09:01:12;99444.88;;;2.50;86.91
63512;BME280;49666;52.030;8.884;2024-01-16T09:03:37;99439.06;;;2.57;87.01
63512;BME280;49666;52.030;8.884;2024-01-16T09:06:03;99446.06;;;2.63;86.95
63512;BME280;49666;52.030;8.884;2024-01-16T09:08:28;99450.03;;;2.71;87.11
63512;BME280;49666;52.030;8.884;2024-01-16T09:10:55;99448.00;;;2.82;87.05
63512;BME280;49666;52.030;8.884;2024-01-16T09:13:21;99441.06;;;2.94;87.38
63512;BME280;49666;52.030;8.884;2024-01-16T09:15:47;99445.66;;;3.13;87.75
63512;BME280;49666;52.030;8.884;2024-01-16T09:18:14;99447.34;;;3.28;87.75
63512;BME280;49666;52.030;8.884;2024-01-16T09:20:39;99454.59;;;3.33;87.38
63512;BME280;49666;52.030;8.884;2024-01-16T09:23:04;99444.53;;;3.33;87.03
63512;BME280;49666;52.030;8.884;2024-01-16T09:25:30;99442.94;;;3.32;86.60
63512;BME280;49666;52.030;8.884;2024-01-16T09:27:55;99451.16;;;3.27;85.97
63512;BME280;49666;52.030;8.884;2024-01-16T09:30:20;99448.50;;;3.22;86.01
63512;BME280;49666;52.030;8.884;2024-01-16T09:32:48;99443.19;;;3.17;85.56
63512;BME280;49666;52.030;8.884;2024-01-16T09:35:13;99441.06;;;3.14;85.92
63512;BME280;49666;52.030;8.884;2024-01-16T09:37:38;99444.34;;;3.10;85.93
63512;BME280;49666;52.030;8.884;2024-01-16T09:40:05;99444.66;;;3.09;85.83
63512;BME280;49666;52.030;8.884;2024-01-16T09:42:31;99435.19;;;3.06;86.03
63512;BME280;49666;52.030;8.884;2024-01-16T09:44:56;99439.78;;;3.06;86.04
63512;BME280;49666;52.030;8.884;2024-01-16T09:47:24;99450.63;;;3.06;86.06
63512;BME280;49666;52.030;8.884;2024-01-16T09:49:49;99448.53;;;3.03;85.77
63512;BME280;49666;52.030;8.884;2024-01-16T09:52:15;99448.59;;;2.98;85.63
63512;BME280;49666;52.030;8.884;2024-01-16T09:54:40;99443.78;;;2.94;85.87
63512;BME280;49666;52.030;8.884;2024-01-16T09:57:07;99440.53;;;2.92;85.99
63512;BME280;49666;52.030;8.884;2024-01-16T09:59:35;99441.56;;;2.97;86.42
63512;BME280;49666;52.030;8.884;2024-01-16T10:02:02;99437.97;;;3.01;86.66
63512;BME280;49666;52.030;8.884;2024-01-16T10:04:32;99443.63;;;3.05;86.90
63512;BME280;49666;52.030;8.884;2024-01-16T10:06:58;99449.50;;;3.12;87.21
63512;BME280;49666;52.030;8.884;2024-01-16T10:09:25;99443.97;;;3.17;87.14
63512;BME280;49666;52.030;8.884;2024-01-16T10:11:50;99439.56;;;3.21;87.20
63512;BME280;49666;52.030;8.884;2024-01-16T10:14:17;99446.31;;;3.24;87.00
63512;BME280;49666;52.030;8.884;2024-01-16T10:17:15;99455.78;;;3.26;86.52
63512;BME280;49666;52.030;8.884;2024-01-16T10:19:52;99449.63;;;3.21;86.34
63512;BME280;49666;52.030;8.884;2024-01-16T10:22:20;99452.69;;;3.14;86.06
63512;BME280;49666;52.030;8.884;2024-01-16T10:24:47;99445.22;;;3.06;85.21
63512;BME280;49666;52.030;8.884;2024-01-16T10:27:15;99445.00;;;3.02;85.66
63512;BME280;49666;52.030;8.884;2024-01-16T10:30:01;99440.19;;;2.99;85.61
63512;BME280;49666;52.030;8.884;2024-01-16T10:32:30;99447.03;;;2.91;85.68
63512;BME280;49666;52.030;8.884;2024-01-16T10:35:07;99450.56;;;2.92;86.05
63512;BME280;49666;52.030;8.884;2024-01-16T10:37:50;99445.94;;;2.92;86.28
63512;BME280;49666;52.030;8.884;2024-01-16T10:42:43;99445.00;;;2.83;86.04
63512;BME280;49666;52.030;8.884;2024-01-16T10:45:17;99448.81;;;2.82;86.01
63512;BME280;49666;52.030;8.884;2024-01-16T10:47:46;99447.78;;;2.78;86.19
63512;BME280;49666;52.030;8.884;2024-01-16T10:50:12;99452.69;;;2.76;86.15
63512;BME280;49666;52.030;8.884;2024-01-16T10:52:45;99449.44;;;2.74;86.18
63512;BME280;49666;52.030;8.884;2024-01-16T10:55:19;99456.25;;;2.71;86.11
63512;BME280;49666;52.030;8.884;2024-01-16T10:57:48;99448.69;;;2.68;86.29
63512;BME280;49666;52.030;8.884;2024-01-16T11:00:13;99445.50;;;2.66;86.07
63512;BME280;49666;52.030;8.884;2024-01-16T11:02:44;99445.78;;;2.65;86.07
63512;BME280;49666;52.030;8.884;2024-01-16T11:05:12;99439.53;;;2.64;86.21
63512;BME280;49666;52.030;8.884;2024-01-16T11:07:37;99441.69;;;2.67;86.30
63512;BME280;49666;52.030;8.884;2024-01-16T11:10:05;99443.81;;;2.70;86.54
63512;BME280;49666;52.030;8.884;2024-01-16T11:12:32;99436.13;;;2.77;86.85
63512;BME280;49666;52.030;8.884;2024-01-16T11:14:59;99425.19;;;2.83;87.05
63512;BME280;49666;52.030;8.884;2024-01-16T11:17:32;99434.91;;;2.89;87.24
63512;BME280;49666;52.030;8.884;2024-01-16T11:19:58;99432.91;;;2.94;86.81
63512;BME280;49666;52.030;8.884;2024-01-16T11:22:24;99431.00;;;2.95;87.14
63512;BME280;49666;52.030;8.884;2024-01-16T11:25:13;99444.28;;;2.97;86.31
63512;BME280;49666;52.030;8.884;2024-01-16T11:27:42;99440.53;;;2.92;86.71
63512;BME280;49666;52.030;8.884;2024-01-16T11:30:09;99441.31;;;2.93;86.69
63512;BME280;49666;52.030;8.884;2024-01-16T11:32:45;99439.72;;;2.92;86.40
63512;BME280;49666;52.030;8.884;2024-01-16T11:35:10;99444.13;;;2.88;86.02
63512;BME280;49666;52.030;8.884;2024-01-16T11:37:39;99440.88;;;2.86;86.51
63512;BME280;49666;52.030;8.884;2024-01-16T11:42:50;99442.84;;;2.80;86.26
63512;BME280;49666;52.030;8.884;2024-01-16T11:48:08;99436.47;;;2.71;86.68
63512;BME280;49666;52.030;8.884;2024-01-16T11:50:34;99443.00;;;2.70;86.37
63512;BME280;49666;52.030;8.884;2024-01-16T11:53:00;99440.81;;;2.72;86.52
63512;BME280;49666;52.030;8.884;2024-01-16T11:55:29;99449.72;;;2.72;86.41
63512;BME280;49666;52.030;8.884;2024-01-16T11:58:02;99446.72;;;2.74;86.40
63512;BME280;49666;52.030;8.884;2024-01-16T12:00:35;99444.03;;;2.74;86.32
63512;BME280;49666;52.030;8.884;2024-01-16T12:03:02;99437.50;;;2.75;86.49
63512;BME280;49666;52.030;8.884;2024-01-16T12:05:29;99441.84;;;2.76;86.31
63512;BME280;49666;52.030;8.884;2024-01-16T12:07:54;99444.84;;;2.74;86.16
63512;BME280;49666;52.030;8.884;2024-01-16T12:10:22;99440.81;;;2.72;86.19
63512;BME280;49666;52.030;8.884;2024-01-16T12:12:48;99440.56;;;2.68;85.52
63512;BME280;49666;52.030;8.884;2024-01-16T12:15:15;99432.50;;;2.63;85.36
63512;BME280;49666;52.030;8.884;2024-01-16T12:18:00;99437.69;;;2.59;85.48
63512;BME280;49666;52.030;8.884;2024-01-16T12:20:28;99440.75;;;2.53;85.11
63512;BME280;49666;52.030;8.884;2024-01-16T12:22:57;99435.91;;;2.50;85.64
63512;BME280;49666;52.030;8.884;2024-01-16T12:25:24;99429.44;;;2.46;85.40
63512;BME280;49666;52.030;8.884;2024-01-16T12:27:57;99428.72;;;2.40;84.08
63512;BME280;49666;52.030;8.884;2024-01-16T12:30:26;99425.28;;;2.34;85.42
63512;BME280;49666;52.030;8.884;2024-01-16T12:33:13;99428.81;;;2.30;85.39
63512;BME280;49666;52.030;8.884;2024-01-16T12:35:40;99432.94;;;2.27;85.97
63512;BME280;49666;52.030;8.884;2024-01-16T12:38:07;99421.00;;;2.28;86.05
63512;BME280;49666;52.030;8.884;2024-01-16T12:40:38;99420.19;;;2.28;86.27
63512;BME280;49666;52.030;8.884;2024-01-16T12:43:05;99413.97;;;2.27;86.24
63512;BME280;49666;52.030;8.884;2024-01-16T12:45:31;99415.06;;;2.26;85.96
63512;BME280;49666;52.030;8.884;2024-01-16T12:47:57;99401.22;;;2.28;86.23
63512;BME280;49666;52.030;8.884;2024-01-16T12:50:24;99402.31;;;2.27;85.76
63512;BME280;49666;52.030;8.884;2024-01-16T12:52:53;99402.84;;;2.29;85.94
63512;BME280;49666;52.030;8.884;2024-01-16T12:55:25;99403.41;;;2.25;86.22
63512;BME280;49666;52.030;8.884;2024-01-16T12:58:17;99392.31;;;2.27;86.06
63512;BME280;49666;52.030;8.884;2024-01-16T13:00:48;99393.97;;;2.23;86.14
63512;BME280;49666;52.030;8.884;2024-01-16T13:03:34;99394.47;;;2.25;86.24
63512;BME280;49666;52.030;8.884;2024-01-16T13:06:00;99385.84;;;2.23;86.34
63512;BME280;49666;52.030;8.884;2024-01-16T13:08:26;99387.16;;;2.25;86.35
63512;BME280;49666;52.030;8.884;2024-01-16T13:11:08;99380.66;;;2.27;86.29
63512;BME280;49666;52.030;8.884;2024-01-16T13:13:35;99379.03;;;2.25;86.66
63512;BME280;49666;52.030;8.884;2024-01-16T13:16:01;99391.78;;;2.25;86.54